Time;durP1;ratioP1;P1;durP2;ratioP2;P2;SDS_P1;SDS_P2;PMS_P1;PMS_P2;Temp;Humidity;BMP_temperature;BMP_pressure;BME280_temperature;BME280_humidity;BME280_pressure;Samples;Min_cycle;Max_cycle;Signal;HPM_P1;HPM_P2
2021/05/27 00:00:26;;;;;;;27.05;11.35;;;;;;;-142.75;67.19;77594.03;5072956;28;20077;-80
2021/05/27 00:02:51;;;;;;;36.95;10.80;;;;;;;-142.75;67.04;77586.16;5051150;28;20060;-80
2021/05/27 00:05:17;;;;;;;30.98;10.77;;;;;;;-142.75;66.82;77601.91;5065951;28;20052;-81
2021/05/27 00:07:43;;;;;;;29.33;9.95;;;;;;;-142.75;66.79;77601.91;5063536;28;20033;-81
2021/05/27 00:10:11;;;;;;;22.88;9.20;;;;;;;-142.75;66.60;77599.94;5064650;28;20020;-83
2021/05/27 00:12:37;;;;;;;26.37;9.03;;;;;;;-142.75;66.11;77594.03;5047631;28;20037;-82
2021/05/27 00:15:05;;;;;;;24.00;8.82;;;;;;;-142.75;65.87;77605.84;5051850;28;20437;-82
2021/05/27 00:17:31;;;;;;;26.97;8.53;;;;;;;-142.75;66.17;77619.63;5066420;28;20066;-82
2021/05/27 00:19:56;;;;;;;28.10;8.45;;;;;;;-142.75;65.97;77619.63;5060951;28;20425;-81
2021/05/27 00:22:22;;;;;;;25.40;8.63;;;;;;;-142.75;66.07;77625.53;5065005;28;20037;-81
2021/05/27 00:24:48;;;;;;;24.50;10.40;;;;;;;-142.75;66.14;77621.59;5047682;28;20067;-82
2021/05/27 00:27:13;;;;;;;22.85;8.80;;;;;;;-142.75;65.83;77627.50;5042962;28;20021;-80
2021/05/27 00:29:39;;;;;;;20.17;8.13;;;;;;;-142.75;66.16;77637.34;5064259;28;20440;-81
2021/05/27 00:32:05;;;;;;;28.58;7.60;;;;;;;-142.75;65.86;77621.59;5049801;28;20020;-81
2021/05/27 00:34:30;;;;;;;30.75;9.60;;;;;;;-142.75;66.34;77637.34;5042498;28;20029;-83
2021/05/27 00:36:55;;;;;;;28.50;9.38;;;;;;;-142.75;66.17;77635.38;5068840;28;20028;-82
2021/05/27 00:39:21;;;;;;;22.50;8.80;;;;;;;-142.75;66.34;77633.41;5047462;28;20028;-82
2021/05/27 00:41:46;;;;;;;18.02;8.18;;;;;;;-142.75;65.92;77645.22;5065350;28;20077;-84
2021/05/27 00:44:25;;;;;;;21.55;8.55;;;;;;;-142.75;65.58;77643.25;5069906;28;20233;-83
2021/05/27 00:46:52;;;;;;;22.77;7.83;;;;;;;-142.75;65.63;77637.34;5052905;28;20502;-82
2021/05/27 00:49:17;;;;;;;20.37;7.37;;;;;;;-142.75;65.62;77647.19;5065506;28;20027;-82
2021/05/27 00:51:44;;;;;;;17.40;7.20;;;;;;;-142.75;65.34;77653.09;5061207;28;20016;-81
2021/05/27 00:54:11;;;;;;;22.47;6.97;;;;;;;-142.75;64.97;77660.97;5068884;28;20056;-81
2021/05/27 00:56:36;;;;;;;17.87;6.97;;;;;;;-142.75;65.17;77666.88;5060451;28;20091;-81
2021/05/27 00:59:03;;;;;;;27.33;7.05;;;;;;;-142.75;65.59;77680.66;5047372;28;20021;-79
2021/05/27 01:01:28;;;;;;;24.87;7.40;;;;;;;-142.75;65.66;77680.66;5046525;28;20036;-82
2021/05/27 01:03:54;;;;;;;20.10;6.93;;;;;;;-142.75;65.77;77676.72;5038815;28;20032;-82
2021/05/27 01:06:19;;;;;;;26.60;7.28;;;;;;;-142.75;65.53;77680.66;5045366;28;20072;-81
2021/05/27 01:08:44;;;;;;;19.65;6.50;;;;;;;-142.75;65.68;77686.56;5050040;28;20023;-81
2021/05/27 01:11:10;;;;;;;16.43;6.93;;;;;;;-142.75;65.38;77686.56;5044852;28;20061;-81
2021/05/27 01:13:35;;;;;;;20.63;7.03;;;;;;;-142.75;65.63;77684.59;5066573;28;20274;-81
2021/05/27 01:16:00;;;;;;;25.77;8.07;;;;;;;-142.75;65.86;77676.72;5064320;28;20397;-82
2021/05/27 01:18:27;;;;;;;26.30;7.68;;;;;;;-142.75;66.17;77684.59;5047324;28;20405;-83
2021/05/27 01:20:55;;;;;;;22.50;7.77;;;;;;;-142.75;66.11;77676.72;5053419;28;20024;-81
2021/05/27 01:23:22;;;;;;;31.40;8.10;;;;;;;-142.75;66.36;77690.50;5069902;28;20454;-82
2021/05/27 01:25:50;;;;;;;22.70;7.50;;;;;;;-142.75;66.67;77692.47;5050110;28;20025;-80
2021/05/27 01:28:17;;;;;;;29.83;9.93;;;;;;;-142.75;66.40;77688.53;5054091;28;20052;-81
2021/05/27 01:30:43;;;;;;;23.57;7.83;;;;;;;-142.75;66.72;77686.56;5043151;28;20029;-80
2021/05/27 01:33:10;;;;;;;21.40;7.33;;;;;;;-142.75;66.48;77688.53;5067148;28;20401;-81
2021/05/27 01:35:36;;;;;;;24.77;7.17;;;;;;;-142.75;66.17;77690.50;5063602;28;20021;-81
2021/05/27 01:38:10;;;;;;;;;;;;;;;-142.75;65.93;77680.66;5046042;28;20036;-80
2021/05/27 01:40:35;;;;;;;26.83;8.57;;;;;;;-142.75;66.56;77692.47;5045751;28;19922;-82
2021/05/27 01:43:00;;;;;;;18.17;7.67;;;;;;;-142.75;66.66;77688.53;5062307;28;20103;-83
2021/05/27 01:45:25;;;;;;;19.47;7.70;;;;;;;-142.75;66.55;77680.66;5045110;28;20768;-83
2021/05/27 01:47:54;;;;;;;32.43;7.37;;;;;;;-142.75;66.33;77676.72;5065490;28;20270;-81
2021/05/27 01:50:20;;;;;;;19.20;8.20;;;;;;;-142.75;65.74;77680.66;5062771;28;20752;-82
2021/05/27 01:52:47;;;;;;;27.60;7.22;;;;;;;-142.75;66.13;77688.53;5066638;28;20025;-82
2021/05/27 01:55:13;;;;;;;23.70;7.07;;;;;;;-142.75;66.11;77684.59;5054700;28;20063;-82
2021/05/27 01:57:38;;;;;;;21.80;7.22;;;;;;;-142.75;66.22;77686.56;5069797;28;20029;-81
2021/05/27 02:00:05;;;;;;;26.60;6.90;;;;;;;-142.75;65.70;77694.44;5056682;28;20043;-82
2021/05/27 02:02:30;;;;;;;24.80;7.70;;;;;;;-142.75;66.18;77700.34;5066367;28;20266;-81
2021/05/27 02:04:56;;;;;;;21.75;6.97;;;;;;;-142.75;65.82;77692.47;5047486;28;20035;-81
2021/05/27 02:07:21;;;;;;;28.67;7.90;;;;;;;-142.75;66.02;77700.34;5050063;28;20021;-81
2021/05/27 02:09:46;;;;;;;24.05;7.32;;;;;;;-142.75;66.27;77698.38;5050191;28;20021;-81
2021/05/27 02:12:11;;;;;;;18.60;6.73;;;;;;;-142.75;66.42;77692.47;5044785;28;20102;-81
2021/05/27 02:14:37;;;;;;;25.17;7.70;;;;;;;-142.75;66.35;77676.72;5062339;28;20099;-82
2021/05/27 02:17:02;;;;;;;23.10;8.43;;;;;;;-142.75;66.58;77692.47;5040672;28;20482;-82
2021/05/27 02:19:27;;;;;;;25.80;7.57;;;;;;;-142.75;66.17;77680.66;5063079;22;20532;-84
2021/05/27 02:21:53;;;;;;;20.97;7.30;;;;;;;-142.75;66.08;77688.53;5041084;28;20024;-83
2021/05/27 02:24:18;;;;;;;20.52;7.18;;;;;;;-142.75;66.52;77692.47;5065803;28;20346;-84
2021/05/27 02:26:43;;;;;;;26.88;7.45;;;;;;;-142.75;66.05;77700.34;5042592;28;20024;-85
2021/05/27 02:29:09;;;;;;;21.88;7.97;;;;;;;-142.75;66.09;77688.53;5026635;28;20063;-86
2021/05/27 02:31:35;;;;;;;24.25;7.30;;;;;;;-142.75;66.15;77696.41;5044146;28;20063;-86
2021/05/27 02:34:00;;;;;;;22.67;7.05;;;;;;;-142.75;66.04;77704.28;5059675;28;20099;-87
2021/05/27 02:36:27;;;;;;;22.10;6.40;;;;;;;-142.75;66.18;77700.34;5044605;28;20055;-86
2021/05/27 02:38:53;;;;;;;23.70;7.87;;;;;;;-142.75;66.51;77696.41;5046131;28;20024;-87
2021/05/27 02:41:19;;;;;;;;;;;;;;;-142.75;66.59;77698.38;5048034;28;20040;-85
2021/05/27 02:43:45;;;;;;;30.23;8.17;;;;;;;-142.75;66.57;77698.38;5049816;28;19916;-86
2021/05/27 02:46:11;;;;;;;20.88;7.15;;;;;;;-142.75;66.88;77696.41;5041368;28;20127;-87
2021/05/27 02:48:36;;;;;;;24.43;6.87;;;;;;;-142.75;66.83;77700.34;5063150;28;20058;-87
2021/05/27 02:51:03;;;;;;;28.55;7.10;;;;;;;-142.75;66.89;77704.28;5042034;28;20806;-87
2021/05/27 02:53:28;;;;;;;24.33;7.37;;;;;;;-142.75;66.81;77704.28;5041662;28;20043;-86
2021/05/27 02:55:53;;;;;;;23.95;7.80;;;;;;;-142.75;66.62;77700.34;5061068;28;20025;-86
2021/05/27 02:58:19;;;;;;;19.83;6.38;;;;;;;-142.75;66.27;77706.25;5063569;28;20478;-88
2021/05/27 03:00:45;;;;;;;27.75;6.70;;;;;;;-142.75;66.08;77700.34;5068077;28;20474;-87
2021/05/27 03:03:11;;;;;;;24.38;6.82;;;;;;;-142.75;66.27;77704.28;5047128;28;20092;-85
2021/05/27 03:05:37;;;;;;;18.90;6.50;;;;;;;-142.75;66.63;77706.25;5065146;28;20401;-88
2021/05/27 03:08:02;;;;;;;21.67;7.35;;;;;;;-142.75;66.75;77700.34;5040272;28;20025;-89
2021/05/27 03:10:27;;;;;;;27.40;6.88;;;;;;;-142.75;66.77;77704.28;5043709;28;20035;-85
2021/05/27 03:12:53;;;;;;;22.48;7.55;;;;;;;-142.75;66.48;77694.44;5055134;28;20855;-84
2021/05/27 03:15:18;;;;;;;28.25;7.75;;;;;;;-142.75;66.10;77706.25;5044179;28;20029;-84
2021/05/27 03:17:44;;;;;;;35.40;7.97;;;;;;;-142.75;66.54;77708.22;5044729;28;20025;-86
2021/05/27 03:20:11;;;;;;;20.98;8.07;;;;;;;-142.75;66.42;77712.16;5041459;28;20634;-84
2021/05/27 03:22:37;;;;;;;26.30;7.90;;;;;;;-142.75;66.92;77716.09;5043341;28;20513;-88
2021/05/27 03:25:03;;;;;;;;;;;;;;;-142.75;66.73;77716.09;5047089;28;20065;-85
2021/05/27 03:27:28;;;;;;;24.97;7.13;;;;;;;-142.75;66.70;77712.16;5046012;28;19972;-86
2021/05/27 03:29:53;;;;;;;33.67;7.25;;;;;;;-142.75;67.19;77718.06;5062782;28;20078;-86
2021/05/27 03:32:18;;;;;;;26.20;6.82;;;;;;;-142.75;66.50;77712.16;5044241;28;20601;-86
2021/05/27 03:34:44;;;;;;;21.02;6.82;;;;;;;-142.75;66.84;77718.06;5045095;28;20027;-88
2021/05/27 03:37:09;;;;;;;35.05;7.13;;;;;;;-142.75;66.63;77716.09;5065403;28;20028;-85
2021/05/27 03:39:34;;;;;;;27.67;7.20;;;;;;;-142.75;67.10;77723.97;5064177;28;20024;-86
2021/05/27 03:42:00;;;;;;;29.30;7.82;;;;;;;-142.75;67.22;77714.13;5036851;28;20487;-85
2021/05/27 03:44:25;;;;;;;25.88;7.22;;;;;;;-142.75;67.13;77718.06;5042617;28;20477;-86
2021/05/27 03:46:50;;;;;;;35.97;7.40;;;;;;;-142.75;66.93;77712.16;5064571;28;20029;-85
2021/05/27 03:49:16;;;;;;;28.10;7.10;;;;;;;-142.75;67.57;77727.94;5066540;28;20029;-88
2021/05/27 03:51:41;;;;;;;20.00;7.30;;;;;;;-142.75;67.10;77725.97;5069015;28;20021;-83
2021/05/27 03:54:07;;;;;;;21.65;7.28;;;;;;;-142.75;67.29;77722.00;5043938;28;20082;-85
2021/05/27 03:56:32;;;;;;;24.73;7.28;;;;;;;-142.75;68.06;77731.88;5058511;28;20035;-87
2021/05/27 04:01:41;;;;;;;23.53;7.03;;;;;;;-142.75;68.18;77729.88;5067749;28;20043;-83
2021/05/27 04:09:35;;;;;;;22.17;7.10;;;;;;;-142.75;68.58;77751.56;5061052;28;20402;-84
2021/05/27 04:15:19;;;;;;;27.88;7.57;;;;;;;-142.75;68.84;77753.53;5062627;28;20417;-85
2021/05/27 04:17:29;;;;;;;26.23;7.55;;;;;;;-142.75;68.40;77753.53;5065468;28;20035;-83
2021/05/27 04:19:54;;;;;;;26.42;7.85;;;;;;;-142.75;68.62;77755.50;5048959;28;20017;-84
2021/05/27 04:22:20;;;;;;;24.83;7.07;;;;;;;-142.75;69.01;77751.56;5048172;28;20147;-83
2021/05/27 04:24:45;;;;;;;25.93;7.57;;;;;;;-142.75;68.37;77743.69;5048981;28;20462;-84
2021/05/27 04:27:10;;;;;;;31.10;7.73;;;;;;;-142.75;68.64;77751.56;5069787;28;20278;-83
2021/05/27 04:29:35;;;;;;;22.67;7.80;;;;;;;-142.75;68.95;77755.50;5069941;28;20641;-84
2021/05/27 04:32:01;;;;;;;23.77;6.82;;;;;;;-142.75;69.20;77759.44;5045211;28;20115;-84
2021/05/27 04:34:29;;;;;;;23.40;7.47;;;;;;;-142.75;69.04;77751.56;5053177;28;20387;-83
2021/05/27 04:36:54;;;;;;;25.53;7.83;;;;;;;-142.75;68.94;77751.56;5060174;28;20029;-85
2021/05/27 04:39:19;;;;;;;22.87;7.73;;;;;;;-142.75;69.26;77757.47;5052648;28;20413;-83
2021/05/27 04:41:44;;;;;;;28.97;7.67;;;;;;;-142.75;69.05;77745.66;5054270;28;20344;-82
2021/05/27 04:44:10;;;;;;;23.27;7.55;;;;;;;-142.75;69.11;77749.59;5049892;28;20031;-84
2021/05/27 04:46:35;;;;;;;24.88;9.10;;;;;;;-142.75;69.11;77743.69;5048992;28;20094;-84
2021/05/27 04:49:00;;;;;;;24.40;8.90;;;;;;;-142.75;69.27;77745.66;5067894;28;20029;-86
2021/05/27 04:51:26;;;;;;;22.40;7.18;;;;;;;-142.75;68.85;77751.56;5048415;28;20033;-83
2021/05/27 04:53:51;;;;;;;22.27;8.00;;;;;;;-142.75;69.19;77747.63;5034414;28;20143;-84
2021/05/27 04:56:16;;;;;;;31.00;8.55;;;;;;;-142.75;69.29;77739.75;5047721;28;20044;-84
2021/05/27 04:58:41;;;;;;;26.08;9.57;;;;;;;-142.75;69.10;77735.81;5049058;28;20020;-83
2021/05/27 05:01:07;;;;;;;27.38;7.22;;;;;;;-142.75;68.86;77739.75;5050032;28;20040;-84
2021/05/27 05:03:32;;;;;;;19.05;7.68;;;;;;;-142.75;69.24;77747.63;5062449;28;20452;-83
2021/05/27 05:05:57;;;;;;;23.70;7.68;;;;;;;-142.75;69.55;77757.47;5064969;28;20707;-83
2021/05/27 05:08:23;;;;;;;23.15;6.45;;;;;;;-142.75;69.47;77753.53;5050589;28;20377;-84
2021/05/27 05:10:48;;;;;;;24.92;7.75;;;;;;;-142.75;69.45;77751.56;5062820;28;20029;-85
2021/05/27 05:13:14;;;;;;;25.55;7.57;;;;;;;-142.75;69.61;77753.53;5052472;28;20516;-84
2021/05/27 05:15:41;;;;;;;24.33;8.20;;;;;;;-142.75;69.78;77755.50;5066103;28;20025;-83
2021/05/27 05:18:15;;;;;;;26.60;8.77;;;;;;;-142.75;69.62;77747.63;5046158;28;20044;-80
2021/05/27 05:20:42;;;;;;;29.70;8.63;;;;;;;-142.75;69.70;77749.59;5051816;28;20024;-82
2021/05/27 05:23:09;;;;;;;31.00;7.87;;;;;;;-142.75;69.00;77745.66;5056011;28;20554;-82
2021/05/27 05:25:37;;;;;;;25.93;8.17;;;;;;;-142.75;69.32;77749.59;5043076;28;20023;-84
2021/05/27 05:28:03;;;;;;;23.95;7.88;;;;;;;-142.75;69.91;77755.50;5041672;28;20025;-85
2021/05/27 05:30:29;;;;;;;;;;;;;;;-142.75;69.84;77761.41;5045170;28;20024;-83
2021/05/27 05:32:56;;;;;;;34.67;9.80;;;;;;;-142.75;70.04;77767.31;5072217;28;19912;-84
2021/05/27 05:35:22;;;;;;;26.07;8.40;;;;;;;-142.75;69.72;77765.34;5049172;28;20082;-83
2021/05/27 05:37:48;;;;;;;;;;;;;;;-142.75;69.49;77767.31;5056585;28;20482;-80
2021/05/27 05:40:16;;;;;;;26.30;7.53;;;;;;;-142.75;69.01;77769.28;5047400;28;19923;-83
2021/05/27 05:42:42;;;;;;;26.90;8.63;;;;;;;-142.75;69.32;77771.25;5068633;28;20090;-81
2021/05/27 05:45:09;;;;;;;;;;;;;;;-142.75;69.33;77767.31;5044736;28;20546;-82
2021/05/27 05:47:34;;;;;;;19.83;6.03;;;;;;;-142.75;68.82;77773.22;5045274;28;19924;-80
2021/05/27 05:50:02;;;;;;;22.52;7.15;;;;;;;-142.75;68.14;77773.22;5042053;28;20524;-82
2021/05/27 05:52:27;;;;;;;21.77;7.07;;;;;;;-142.75;67.93;77771.25;5043018;28;20021;-86
2021/05/27 05:54:52;;;;;;;23.50;7.05;;;;;;;-142.75;68.06;77773.22;5053128;28;20017;-85
2021/05/27 05:57:18;;;;;;;23.65;6.90;;;;;;;-142.75;67.84;77783.06;5041436;28;20509;-81
2021/05/27 05:59:43;;;;;;;19.42;6.88;;;;;;;-142.75;68.17;77779.13;5037684;28;20024;-82
2021/05/27 06:02:09;;;;;;;17.33;6.93;;;;;;;-142.75;68.30;77790.94;5065619;28;20031;-83
2021/05/27 06:04:35;;;;;;;24.43;7.30;;;;;;;-142.75;68.51;77794.88;5056431;28;20478;-83
2021/05/27 06:07:00;;;;;;;20.67;6.25;;;;;;;-142.75;68.10;77794.88;5047754;28;20027;-82
2021/05/27 06:09:26;;;;;;;29.85;6.63;;;;;;;-142.75;68.37;77794.88;5064803;28;20020;-85
2021/05/27 06:11:54;;;;;;;21.02;7.15;;;;;;;-142.75;67.93;77790.94;5064898;28;20085;-83
2021/05/27 06:14:20;;;;;;;24.10;7.70;;;;;;;-142.75;68.13;77790.94;5058380;28;20528;-87
2021/05/27 06:16:45;;;;;;;17.67;6.88;;;;;;;-142.75;68.19;77783.06;5047334;28;20024;-84
2021/05/27 06:19:11;;;;;;;21.95;7.60;;;;;;;-142.75;67.90;77781.09;5042585;28;20111;-84
2021/05/27 06:21:36;;;;;;;18.00;6.65;;;;;;;-142.75;68.10;77779.13;5045965;28;20032;-85
2021/05/27 06:24:01;;;;;;;22.33;7.15;;;;;;;-142.75;68.36;77781.09;5045297;28;20051;-82
2021/05/27 06:26:27;;;;;;;22.85;6.80;;;;;;;-142.75;68.75;77788.97;5045694;28;20059;-82
2021/05/27 06:28:53;;;;;;;18.30;6.78;;;;;;;-142.75;68.62;77787.00;5049682;28;20021;-84
2021/05/27 06:31:18;;;;;;;28.75;7.43;;;;;;;-142.75;68.74;77794.88;5043393;28;20087;-86
2021/05/27 06:33:43;;;;;;;25.77;7.22;;;;;;;-142.75;68.74;77783.06;5058326;28;20051;-83
2021/05/27 06:36:10;;;;;;;20.98;6.88;;;;;;;-142.75;68.86;77785.03;5041755;28;20107;-85
2021/05/27 06:38:35;;;;;;;21.93;7.23;;;;;;;-142.75;69.12;77790.94;5064198;28;20025;-86
2021/05/27 06:41:01;;;;;;;25.80;7.30;;;;;;;-142.75;69.01;77787.00;5042127;28;20115;-84
2021/05/27 06:43:27;;;;;;;27.95;6.63;;;;;;;-142.75;68.28;77775.19;5045182;28;20981;-85
2021/05/27 06:45:52;;;;;;;21.00;6.47;;;;;;;-142.75;68.45;77777.16;5043160;28;20028;-86
2021/05/27 06:48:17;;;;;;;24.65;6.63;;;;;;;-142.75;68.08;77783.06;5043031;28;20017;-85
2021/05/27 06:50:43;;;;;;;25.30;7.70;;;;;;;-142.75;68.58;77788.97;5046408;28;20024;-85
2021/05/27 06:53:12;;;;;;;26.63;7.33;;;;;;;-142.75;67.60;77777.16;5062473;28;20629;-83
2021/05/27 06:55:40;;;;;;;16.20;6.10;;;;;;;-142.75;68.12;77773.22;5045102;28;20267;-85
2021/05/27 06:58:05;;;;;;;23.80;6.80;;;;;;;-142.75;67.35;77777.16;5063625;28;20433;-82
2021/05/27 07:00:32;;;;;;;24.10;6.28;;;;;;;-142.75;67.46;77785.03;5045218;28;20180;-82
2021/05/27 07:02:57;;;;;;;20.00;7.43;;;;;;;-142.75;67.08;77788.97;5060933;28;20420;-82
2021/05/27 07:05:23;;;;;;;16.90;6.47;;;;;;;-142.75;68.10;77790.94;5047575;28;20055;-82
2021/05/27 07:07:49;;;;;;;;;;;;;;;-142.75;67.81;77787.00;5045855;28;20035;-84
2021/05/27 07:10:16;;;;;;;29.47;7.23;;;;;;;-142.75;67.37;77788.97;5048915;28;19912;-82
2021/05/27 07:12:53;;;;;;;25.40;6.93;;;;;;;-142.75;66.54;77787.00;5042480;28;20478;-83
2021/05/27 07:15:20;;;;;;;22.00;6.20;;;;;;;-142.75;66.85;77792.91;5062502;28;20490;-85
2021/05/27 07:17:49;;;;;;;27.60;6.60;;;;;;;-142.75;66.39;77790.94;5063414;28;20028;-84
2021/05/27 07:20:17;;;;;;;17.37;5.33;;;;;;;-142.75;66.95;77790.94;5060667;28;20020;-82
2021/05/27 07:22:42;;;;;;;21.77;6.27;;;;;;;-142.75;66.78;77779.13;5046222;28;20091;-84
2021/05/27 07:25:08;;;;;;;19.30;5.30;;;;;;;-142.75;66.53;77787.00;5045426;28;20490;-85
2021/05/27 07:27:34;;;;;;;19.65;5.72;;;;;;;-142.75;66.02;77781.09;5065249;28;20059;-85
2021/05/27 07:29:59;;;;;;;18.92;5.07;;;;;;;-142.75;65.42;77775.19;5047690;28;20078;-85
2021/05/27 07:32:25;;;;;;;27.48;5.50;;;;;;;-142.75;66.08;77769.28;5063756;28;20051;-86
2021/05/27 07:34:50;;;;;;;16.40;4.95;;;;;;;-142.75;66.08;77769.28;5044026;28;20024;-83
2021/05/27 07:37:16;;;;;;;12.57;4.70;;;;;;;-142.75;65.49;77773.22;5043350;28;20489;-84
2021/05/27 07:39:41;;;;;;;16.20;5.38;;;;;;;-142.75;65.18;77781.09;5042778;28;20033;-83
2021/05/27 07:42:07;;;;;;;14.82;5.80;;;;;;;-142.75;64.67;77783.06;5046449;28;20045;-85
2021/05/27 07:44:34;;;;;;;17.27;4.35;;;;;;;-142.75;64.97;77781.09;5058746;28;20559;-83
2021/05/27 07:47:00;;;;;;;15.70;4.37;;;;;;;-142.75;65.08;77775.19;5046233;28;20495;-83
2021/05/27 07:49:25;;;;;;;15.30;4.25;;;;;;;-142.75;64.93;77777.16;5064280;28;20070;-84
2021/05/27 07:51:51;;;;;;;21.50;4.75;;;;;;;-142.75;65.37;77779.13;5065355;28;20025;-83
2021/05/27 07:54:16;;;;;;;18.05;5.63;;;;;;;-142.75;65.61;77775.19;5044669;28;20119;-83
2021/05/27 07:56:41;;;;;;;15.10;4.85;;;;;;;-142.75;64.83;77771.25;5059934;28;20109;-85
2021/05/27 07:59:06;;;;;;;13.82;4.53;;;;;;;-142.75;64.45;77767.31;5064584;28;20024;-84
2021/05/27 08:01:32;;;;;;;9.10;4.47;;;;;;;-142.75;64.32;77765.34;5042315;28;20037;-81
2021/05/27 08:03:57;;;;;;;14.40;3.58;;;;;;;-142.75;63.63;77763.38;5062998;28;20017;-84
2021/05/27 08:06:23;;;;;;;17.65;4.72;;;;;;;-142.75;63.94;77761.41;5044141;28;20036;-86
2021/05/27 08:08:48;;;;;;;14.55;4.30;;;;;;;-142.75;64.08;77763.38;5048760;28;20017;-83
2021/05/27 08:11:13;;;;;;;13.25;4.35;;;;;;;-142.75;63.95;77751.56;5068448;28;20094;-85
2021/05/27 08:13:39;;;;;;;12.27;4.22;;;;;;;-142.75;64.32;77767.31;5048598;28;20028;-83
2021/05/27 08:16:05;;;;;;;16.47;4.80;;;;;;;-142.75;65.04;77771.25;5049274;28;20440;-85
2021/05/27 08:18:30;;;;;;;14.90;5.07;;;;;;;-142.75;64.83;77765.34;5048436;28;20304;-85
2021/05/27 08:20:55;;;;;;;16.63;4.70;;;;;;;-142.75;65.35;77773.22;5048742;28;20040;-85
2021/05/27 08:23:20;;;;;;;15.00;4.97;;;;;;;-142.75;65.07;77769.28;5068144;28;20482;-86
2021/05/27 08:25:46;;;;;;;19.63;4.40;;;;;;;-142.75;65.35;77769.28;5046338;28;20028;-83
2021/05/27 08:28:11;;;;;;;16.45;4.97;;;;;;;-142.75;64.89;77785.03;5050032;28;20369;-83
2021/05/27 08:30:36;;;;;;;19.70;5.40;;;;;;;-142.75;64.82;77787.00;5066144;28;20028;-83
2021/05/27 08:33:02;;;;;;;15.32;4.95;;;;;;;-142.75;65.18;77787.00;5048991;28;20446;-85
2021/05/27 08:35:27;;;;;;;18.75;5.43;;;;;;;-142.75;65.36;77787.00;5050240;28;20031;-84
2021/05/27 08:37:52;;;;;;;17.73;4.80;;;;;;;-142.75;64.65;77775.19;5046028;28;20026;-84
2021/05/27 08:40:17;;;;;;;14.88;4.72;;;;;;;-142.75;64.78;77769.28;5069036;28;20025;-82
2021/05/27 08:42:43;;;;;;;19.65;5.75;;;;;;;-142.75;64.44;77771.25;5049170;28;20443;-83
2021/05/27 08:45:09;;;;;;;15.75;4.72;;;;;;;-142.75;64.77;77771.25;5046457;28;20119;-86
2021/05/27 08:47:35;;;;;;;16.40;5.23;;;;;;;-142.75;65.25;77767.31;5049433;28;20409;-85
2021/05/27 08:50:03;;;;;;;13.07;4.10;;;;;;;-142.75;64.23;77771.25;5048733;28;20031;-89
2021/05/27 08:52:29;;;;;;;18.30;4.70;;;;;;;-142.75;64.50;77775.19;5049318;28;20486;-86
2021/05/27 08:54:54;;;;;;;16.67;4.85;;;;;;;-142.75;64.54;77783.06;5048106;28;20055;-84
2021/05/27 08:57:19;;;;;;;21.20;5.10;;;;;;;-142.75;64.41;77773.22;5046530;28;20104;-83
2021/05/27 08:59:45;;;;;;;16.05;5.13;;;;;;;-142.75;65.05;77781.09;5046809;28;20016;-83
2021/05/27 09:02:11;;;;;;;15.15;5.47;;;;;;;-142.75;65.92;77794.88;5067632;28;20175;-84
2021/05/27 09:04:39;;;;;;;26.65;6.07;;;;;;;-142.75;65.15;77792.91;5063706;28;20032;-84
2021/05/27 09:07:05;;;;;;;21.50;5.95;;;;;;;-142.75;65.96;77790.94;5064201;28;20024;-84
2021/05/27 09:09:49;;;;;;;;;;;;;;;-142.75;66.00;77787.00;5067688;28;20031;-81
2021/05/27 09:12:35;;;;;;;18.45;5.93;;;;;;;-142.75;66.24;77781.09;5065812;28;19913;-85
2021/05/27 09:15:06;;;;;;;18.25;6.90;;;;;;;-142.75;65.34;77783.06;5064649;28;20025;-84
2021/05/27 09:17:45;;;;;;;21.73;5.72;;;;;;;-142.75;65.36;77785.03;5078412;28;20024;-85
2021/05/27 09:20:21;;;;;;;22.92;5.63;;;;;;;-142.75;65.61;77783.06;5070838;28;20488;-85
2021/05/27 09:22:48;;;;;;;26.45;5.28;;;;;;;-142.75;65.17;77759.44;5047669;28;20040;-83
2021/05/27 09:25:25;;;;;;;18.42;5.68;;;;;;;-142.75;64.24;77751.56;5051847;28;20024;-85
2021/05/27 09:27:50;;;;;;;24.70;5.50;;;;;;;-142.75;63.41;77761.41;5053345;28;20064;-85
2021/05/27 09:30:16;;;;;;;16.15;5.10;;;;;;;-142.75;63.29;77773.22;5067208;28;20021;-83
2021/05/27 09:32:49;;;;;;;21.27;6.03;;;;;;;-142.75;64.23;77785.03;5069059;28;20025;-84
2021/05/27 09:35:16;;;;;;;18.98;5.45;;;;;;;-142.75;64.43;77779.13;5051088;28;20029;-86
2021/05/27 09:37:50;;;;;;;21.33;5.07;;;;;;;-142.75;64.60;77779.13;5044135;28;20056;-86
2021/05/27 09:40:37;;;;;;;17.17;5.78;;;;;;;-142.75;64.61;77773.22;5052191;28;20024;-84
2021/05/27 09:43:08;;;;;;;22.20;6.15;;;;;;;-142.75;64.89;77777.16;5050771;28;20060;-86
2021/05/27 09:45:36;;;;;;;17.42;5.75;;;;;;;-142.75;64.35;77777.16;5070935;28;20037;-83
2021/05/27 09:48:23;;;;;;;19.98;5.53;;;;;;;-142.75;63.07;77763.38;5051601;28;20025;-83
2021/05/27 09:50:49;;;;;;;18.60;6.10;;;;;;;-142.75;63.76;77798.81;5052161;28;20017;-82
2021/05/27 09:53:26;;;;;;;20.50;6.55;;;;;;;-142.75;64.81;77800.78;5049168;28;20047;-83
2021/05/27 09:55:53;;;;;;;23.05;6.45;;;;;;;-142.75;63.97;77792.91;5052313;28;20428;-85
2021/05/27 09:58:18;;;;;;;27.10;6.80;;;;;;;-142.75;63.78;77771.25;5045417;28;20043;-83
2021/05/27 10:00:45;;;;;;;22.95;5.85;;;;;;;-142.75;62.38;77747.63;5049344;28;20409;-84
2021/05/27 10:03:22;;;;;;;20.80;6.45;;;;;;;-142.75;63.25;77755.50;5071897;28;20028;-83
2021/05/27 10:05:49;;;;;;;18.08;5.82;;;;;;;-142.75;62.33;77751.56;5070440;28;20056;-83
2021/05/27 10:08:14;;;;;;;18.85;5.25;;;;;;;-142.75;61.41;77767.31;5051584;28;20506;-82
2021/05/27 10:10:44;;;;;;;25.42;5.53;;;;;;;-142.75;61.73;77781.09;5069181;28;20036;-83
2021/05/27 10:13:10;;;;;;;21.40;5.35;;;;;;;-142.75;62.02;77792.91;5050282;28;20135;-82
2021/05/27 10:15:36;;;;;;;18.13;5.60;;;;;;;-142.75;62.19;77804.72;5052982;28;20032;-84
2021/05/27 10:18:05;;;;;;;29.67;5.80;;;;;;;-142.75;62.16;77804.72;5051782;28;20040;-84
2021/05/27 10:20:32;;;;;;;24.60;6.05;;;;;;;-142.75;62.51;77788.97;5067729;28;20555;-83
2021/05/27 10:22:58;;;;;;;28.85;6.80;;;;;;;-142.75;62.90;77779.13;5045665;28;20049;-83
2021/05/27 10:25:25;;;;;;;19.90;6.13;;;;;;;-142.75;62.21;77737.78;5050308;28;20086;-82
2021/05/27 10:27:52;;;;;;;20.45;6.30;;;;;;;-142.75;61.71;77722.00;5068471;28;20036;-84
2021/05/27 10:30:20;;;;;;;21.48;5.63;;;;;;;-142.75;61.02;77727.94;5067118;28;20528;-83
2021/05/27 10:32:51;;;;;;;26.45;6.40;;;;;;;-142.75;62.13;77720.03;5049840;28;20025;-81
2021/05/27 10:35:16;;;;;;;22.90;6.60;;;;;;;-142.75;62.42;77716.09;5067288;28;20025;-81
2021/05/27 10:37:43;;;;;;;19.08;6.18;;;;;;;-142.75;61.73;77727.94;5048831;28;20415;-80
2021/05/27 10:40:11;;;;;;;;;;;;;;;-142.75;62.41;77727.94;5050449;28;20028;-84
2021/05/27 10:42:55;;;;;;;18.17;5.90;;;;;;;-142.75;62.19;77712.16;5066891;28;19982;-83
2021/05/27 10:45:20;;;;;;;29.25;5.63;;;;;;;-142.75;62.07;77720.03;5051156;28;20021;-82
2021/05/27 10:48:17;;;;;;;26.05;6.40;;;;;;;-142.75;62.40;77731.88;5048095;28;20077;-82
2021/05/27 10:50:53;;;;;;;10.95;4.70;;;;;;;-142.75;61.43;77733.84;5064896;28;20048;-84
2021/05/27 10:53:38;;;;;;;16.50;4.97;;;;;;;-142.75;61.93;77749.59;5048798;28;20406;-82
2021/05/27 10:56:07;;;;;;;15.43;4.72;;;;;;;-142.75;61.97;77763.38;5050130;28;20028;-79
2021/05/27 10:58:48;;;;;;;16.35;5.57;;;;;;;-142.75;63.17;77773.22;5043916;28;20079;-80
2021/05/27 11:01:18;;;;;;;19.92;5.03;;;;;;;-142.75;63.01;77763.38;5064413;28;20117;-80
2021/05/27 11:03:50;;;;;;;23.95;6.32;;;;;;;-142.75;63.07;77775.19;5047223;28;20102;-81
2021/05/27 11:06:22;;;;;;;19.65;5.40;;;;;;;-142.75;63.23;77788.97;5062998;28;20053;-80
2021/05/27 11:09:13;;;;;;;24.50;6.20;;;;;;;-142.75;64.67;77806.69;5062896;28;20402;-81
2021/05/27 11:11:47;;;;;;;16.63;5.07;;;;;;;-142.75;64.56;77804.72;5033373;28;20063;-81
2021/05/27 11:14:34;;;;;;;19.17;5.65;;;;;;;-142.75;64.92;77810.63;5062754;28;20029;-82
2021/05/27 11:22:29;;;;;;;20.15;6.15;;;;;;;-142.75;65.76;77824.41;5066610;28;20036;-84
2021/05/27 11:25:16;;;;;;;23.63;6.18;;;;;;;-142.75;65.65;77814.56;5045404;28;20406;-81
2021/05/27 11:27:43;;;;;;;;;;;;;;;-142.75;65.81;77798.81;5049449;28;20501;-80